Aérodrome :
LOGIN :

S'inscrire | Disclaimer

   EN    FR    IT 

 










Légende :    VFR   VFR Marginal   IFR   IFR Intensif   IFR Très Intensif
Visi : 
Plafond : 
>= 8 km
>= 3000ft
5 à 8 km
1000 à 3000 ft
1500m à 5 km
500 à 1000 ft
800 à 1500m
200 à 500 ft
< 800m
< 200 ft
Symboles :   Orages  Brouillard  Fortes neiges  Fortes précipitations  Vent > 20 kt
SIGMETs :   Divers  Orages  Givrage  Turbulence  Onde Orograph.  Cendres Volcan.







- Altitude de l'aérodrome : 25 ft
- Code IATA : TPS


LICT - Vincenzo Florio Trapani

DERNIER METAR :
  • 182355Z 03004KT 9999 FEW020 15/13 Q1008 RMK SCT SCT100 VIS MIN 9999 WIND THR13 36003KT BLU

METARs EXPIRÉS :
  • 182255Z 05003KT 9999 FEW020 16/13 Q1009 RMK SCT SCT100 VIS MIN 9999 WIND THR13 04002KT BLU
  • 182155Z 09002KT 9999 SCT020 16/13 Q1010

TAF TAF LICT
Valide du 19 à 00h jusqu'au 19 à 09h UTC


182300Z 1900/1909 10008KT 9999 SCT020
PROB30
TEMPO 1900/1903 FEW025CB
Pas de NOTAMs connus pour ce terrain.
1 SIGMET publié pour la FIR Roma (LIRR) :
 
Orages noyés dans la masse
LIRR SIGMET 8 VALID 182330/190200 LIIB
LIRR ROMA FIR EMBD TS FCST WI N3733 E01137 - N3835 E01223 - N3906 E01353 - N3838 E01659 - N3630 E01837 - N3630 E01130 - N3733 E01137 TOP FL390 STNR NC=



MET'MAP, la Météo Aéronautique d'un coup d'oeil ! - Copyright ORBIFLY Décembre 2007 - Disclaimer

ORBIFLY MET'MAP TEAM :

Programmation & Développement : Alexandra Zaïnal
Conception & Développement : Baudouin d'Aumeries
Co-Programmation & Développement : Marc-Olivier Méhu
Soutien technique & logistique : Manuel Goepfert

Contact : metmap@orbifly.com




SOURCES & CREDITS :

   NOAA